Terminal Aerodrome Forecast
Issued by NWS Buffalo, NY

Home | Current Version | Previous Version | Text Only | Print | Product List | Glossary On
Versions: 1 2 3 4 5 6 7 8 9 10 11 12 13 14 15 16 17 18 19 20 21 22 23 24
000
FTUS41 KBUF 222343
TAFROC
TAF
KROC 222343Z 2300/2324 24011KT P6SM SCT035 OVC045
     FM230100 25014G20KT 4SM SHRA SCT030 OVC045
      TEMPO 2301/2302 1SM +RA BKN012
     FM230200 26013G22KT P6SM SCT025 BKN045
     FM230500 27011KT P6SM FEW030 SCT045
     FM231700 28013G22KT P6SM FEW040 SCT045
     FM232300 26009KT P6SM SCT035 BKN045=

USA.gov is the U.S. government's official web portal to all federal, state and local government web resources and services.